Time;durP1;ratioP1;P1;durP2;ratioP2;P2;SDS_P1;SDS_P2;PMS_P1;PMS_P2;Temp;Humidity;BMP_temperature;BMP_pressure;BME280_temperature;BME280_humidity;BME280_pressure;Samples;Min_cycle;Max_cycle;Signal;HPM_P1;HPM_P2
2021/06/07 00:01:33;;;;;;;14.10;13.00;;;;;;;15.49;100.00;98360.22;5121265;27;20205;-71
2021/06/07 00:04:01;;;;;;;14.77;13.47;;;;;;;15.53;100.00;98358.00;5121636;27;20213;-70
2021/06/07 00:06:28;;;;;;;15.10;13.67;;;;;;;15.55;100.00;98360.50;5123278;27;20225;-70
2021/06/07 00:08:57;;;;;;;14.83;13.57;;;;;;;15.53;100.00;98359.84;5118509;27;20225;-71
2021/06/07 00:11:25;;;;;;;15.80;14.50;;;;;;;15.54;100.00;98366.88;5121243;27;20197;-70
2021/06/07 00:13:53;;;;;;;15.63;14.13;;;;;;;15.46;100.00;98357.94;5117283;27;20213;-70
2021/06/07 00:16:21;;;;;;;15.63;14.37;;;;;;;15.45;100.00;98364.28;5121415;27;20356;-72
2021/06/07 00:18:49;;;;;;;16.13;14.73;;;;;;;15.44;100.00;98361.81;5121132;27;20553;-70
2021/06/07 00:21:19;;;;;;;15.73;14.33;;;;;;;15.34;100.00;98365.59;5120818;27;20288;-69
2021/06/07 00:23:48;;;;;;;16.87;15.17;;;;;;;15.29;100.00;98365.31;5117177;27;20204;-72
2021/06/07 00:26:17;;;;;;;15.03;13.70;;;;;;;15.25;100.00;98365.88;5121335;27;20225;-71
2021/06/07 00:28:45;;;;;;;15.80;14.40;;;;;;;15.28;100.00;98365.50;5119349;27;20235;-70
2021/06/07 00:31:12;;;;;;;16.10;14.00;;;;;;;15.30;100.00;98368.81;5121042;27;20197;-71
2021/06/07 00:33:40;;;;;;;15.07;13.70;;;;;;;15.29;100.00;98364.50;5117282;27;20201;-71
2021/06/07 00:36:09;;;;;;;15.50;14.00;;;;;;;15.28;100.00;98366.31;5123899;27;20226;-71
2021/06/07 00:38:37;;;;;;;15.40;13.80;;;;;;;15.27;100.00;98367.34;5116914;27;20205;-72
2021/06/07 00:41:06;;;;;;;14.90;13.40;;;;;;;15.27;100.00;98363.84;5117121;27;20205;-72
2021/06/07 00:43:35;;;;;;;14.57;13.17;;;;;;;15.26;100.00;98364.88;5120284;27;20209;-72
2021/06/07 00:46:03;;;;;;;15.07;13.67;;;;;;;15.33;100.00;98368.44;5121279;27;20221;-72
2021/06/07 00:48:31;;;;;;;14.13;12.93;;;;;;;15.28;100.00;98366.31;5117852;27;20589;-71
2021/06/07 00:51:00;;;;;;;15.00;13.63;;;;;;;15.25;100.00;98357.88;5118460;27;20628;-68
2021/06/07 00:53:27;;;;;;;15.83;14.43;;;;;;;15.25;100.00;98364.03;5119213;27;20278;-70
2021/06/07 00:55:57;;;;;;;15.77;14.30;;;;;;;15.39;100.00;98357.03;5117950;27;20281;-74
2021/06/07 00:58:28;;;;;;;16.63;15.13;;;;;;;15.32;100.00;98361.44;5118162;27;20200;-72
2021/06/07 01:00:58;;;;;;;17.60;16.03;;;;;;;15.27;100.00;98356.66;5117400;27;20664;-72
2021/06/07 01:03:26;;;;;;;17.03;15.53;;;;;;;15.21;100.00;98360.06;5118650;27;20204;-71
2021/06/07 01:05:54;;;;;;;17.03;15.63;;;;;;;15.31;100.00;98355.28;5116699;27;20225;-69
2021/06/07 01:08:22;;;;;;;18.70;16.87;;;;;;;15.27;100.00;98354.00;5115583;27;20201;-72
2021/06/07 01:10:51;;;;;;;17.10;15.70;;;;;;;15.37;100.00;98345.69;5120624;27;20200;-71
2021/06/07 01:13:19;;;;;;;17.50;15.73;;;;;;;15.43;100.00;98350.28;5116385;27;20212;-71
2021/06/07 01:15:48;;;;;;;17.57;15.90;;;;;;;15.33;100.00;98347.91;5119284;27;20227;-72
2021/06/07 01:18:18;;;;;;;18.37;16.87;;;;;;;15.37;100.00;98348.38;5117913;27;20209;-73
2021/06/07 01:20:46;;;;;;;18.07;16.40;;;;;;;15.37;100.00;98345.69;5117263;27;20227;-70
2021/06/07 01:23:15;;;;;;;17.67;16.27;;;;;;;15.46;100.00;98339.22;5116674;27;20222;-71
2021/06/07 01:25:44;;;;;;;17.73;16.10;;;;;;;15.39;100.00;98346.34;5116598;27;20240;-71
2021/06/07 01:28:13;;;;;;;17.80;16.30;;;;;;;15.40;100.00;98345.31;5119917;27;20951;-70
2021/06/07 01:30:42;;;;;;;18.40;16.53;;;;;;;15.43;100.00;98336.13;5116963;27;20204;-71
2021/06/07 01:33:12;;;;;;;18.10;16.47;;;;;;;15.38;100.00;98336.69;5116821;27;20209;-70
2021/06/07 01:35:40;;;;;;;20.83;19.03;;;;;;;15.32;100.00;98338.22;5117221;27;20228;-73
2021/06/07 01:38:10;;;;;;;20.47;18.63;;;;;;;15.40;100.00;98334.66;5119382;27;20205;-72
2021/06/07 01:40:41;;;;;;;19.67;17.73;;;;;;;15.43;100.00;98344.13;5113537;27;20213;-71
2021/06/07 01:43:09;;;;;;;18.73;17.13;;;;;;;15.36;100.00;98340.56;5117656;27;20207;-72
2021/06/07 01:45:38;;;;;;;20.17;18.17;;;;;;;15.33;100.00;98337.22;5118732;27;20225;-71
2021/06/07 01:48:08;;;;;;;20.07;18.47;;;;;;;15.29;100.00;98335.13;5116928;27;20211;-71
2021/06/07 01:50:36;;;;;;;20.70;18.90;;;;;;;15.25;100.00;98345.34;5117699;27;20228;-71
2021/06/07 01:53:04;;;;;;;21.37;19.53;;;;;;;15.28;100.00;98334.28;5116366;27;20212;-68
2021/06/07 01:55:33;;;;;;;21.43;19.33;;;;;;;15.28;100.00;98328.13;5115221;27;20260;-71
2021/06/07 01:58:03;;;;;;;21.17;19.37;;;;;;;15.38;100.00;98335.84;5113853;28;20297;-73
2021/06/07 02:00:33;;;;;;;21.13;19.43;;;;;;;15.32;100.00;98338.22;5116067;28;20254;-72
2021/06/07 02:03:00;;;;;;;21.53;19.53;;;;;;;15.49;100.00;98330.84;5119160;27;20283;-71
2021/06/07 02:05:32;;;;;;;21.33;19.53;;;;;;;15.42;100.00;98332.59;5119635;27;20233;-72
2021/06/07 02:08:04;;;;;;;21.70;19.80;;;;;;;15.46;100.00;98335.75;5122509;27;20207;-70
2021/06/07 02:10:33;;;;;;;20.60;18.80;;;;;;;15.52;100.00;98328.81;5120902;27;20601;-74
2021/06/07 02:13:02;;;;;;;19.70;18.10;;;;;;;15.55;100.00;98329.28;5120510;27;20207;-72
2021/06/07 02:15:31;;;;;;;20.43;18.63;;;;;;;15.55;100.00;98325.78;5120892;27;20225;-72
2021/06/07 02:18:01;;;;;;;20.47;18.90;;;;;;;15.49;100.00;98324.69;5122356;27;20687;-71
2021/06/07 02:20:28;;;;;;;19.60;18.10;;;;;;;15.37;100.00;98327.00;5122215;27;20200;-70
2021/06/07 02:22:56;;;;;;;20.40;18.80;;;;;;;15.37;100.00;98324.34;5122652;27;20202;-72
2021/06/07 02:25:24;;;;;;;20.27;18.67;;;;;;;15.28;100.00;98322.78;5116959;27;20220;-71
2021/06/07 02:27:51;;;;;;;20.50;18.80;;;;;;;15.19;100.00;98332.72;5122229;27;20205;-71
2021/06/07 02:30:23;;;;;;;20.90;19.20;;;;;;;15.14;100.00;98324.47;5121831;27;20223;-72
2021/06/07 02:32:52;;;;;;;19.63;17.93;;;;;;;15.13;100.00;98325.47;5117156;27;20200;-72
2021/06/07 02:35:20;;;;;;;20.77;19.07;;;;;;;15.08;100.00;98331.34;5124026;27;20220;-73
2021/06/07 02:37:50;;;;;;;20.87;19.17;;;;;;;15.09;100.00;98332.19;5122880;27;20208;-69
2021/06/07 02:40:20;;;;;;;19.47;17.97;;;;;;;15.15;100.00;98336.78;5119056;27;20205;-73
2021/06/07 02:42:47;;;;;;;20.47;19.00;;;;;;;15.10;100.00;98340.00;5123462;27;20208;-72
2021/06/07 02:45:16;;;;;;;21.63;20.03;;;;;;;15.05;100.00;98331.72;5118778;27;20430;-72
2021/06/07 02:47:48;;;;;;;21.47;19.50;;;;;;;15.01;100.00;98331.28;5117512;27;20200;-74
2021/06/07 02:50:18;;;;;;;21.33;19.30;;;;;;;14.99;100.00;98335.97;5116046;27;20622;-74
2021/06/07 02:52:48;;;;;;;23.00;21.00;;;;;;;15.17;100.00;98334.75;5111956;27;20224;-74
2021/06/07 02:55:22;;;;;;;21.40;19.80;;;;;;;15.21;100.00;98332.56;5121171;27;20221;-73
2021/06/07 02:57:50;;;;;;;21.90;20.30;;;;;;;15.23;100.00;98336.69;5122984;27;20205;-73
2021/06/07 03:00:21;;;;;;;21.33;19.73;;;;;;;15.04;100.00;98332.75;5118040;27;20201;-73
2021/06/07 03:02:50;;;;;;;21.20;19.50;;;;;;;15.04;100.00;98343.41;5122368;27;20560;-71
2021/06/07 03:05:18;;;;;;;21.77;20.07;;;;;;;15.01;100.00;98339.28;5120813;27;20572;-74
2021/06/07 03:07:45;;;;;;;21.97;19.97;;;;;;;14.99;100.00;98335.13;5122604;27;20204;-74
2021/06/07 03:10:13;;;;;;;22.47;20.70;;;;;;;15.09;100.00;98345.53;5120060;27;20221;-73
2021/06/07 03:12:41;;;;;;;21.47;19.67;;;;;;;15.16;100.00;98339.28;5122270;27;20192;-73
2021/06/07 03:15:10;;;;;;;23.87;21.67;;;;;;;15.01;100.00;98341.13;5123470;27;20224;-74
2021/06/07 03:17:38;;;;;;;23.83;21.93;;;;;;;14.98;100.00;98342.34;5126740;27;20197;-70
2021/06/07 03:20:09;;;;;;;22.60;20.90;;;;;;;15.01;100.00;98341.97;5123487;27;20197;-70
2021/06/07 03:22:36;;;;;;;23.30;21.43;;;;;;;14.96;100.00;98344.31;5123251;27;20205;-73
2021/06/07 03:25:05;;;;;;;24.07;21.97;;;;;;;14.98;100.00;98345.00;5117578;27;20220;-73
2021/06/07 03:27:33;;;;;;;23.30;21.30;;;;;;;15.02;100.00;98343.63;5123920;27;20209;-75
2021/06/07 03:30:00;;;;;;;24.10;22.10;;;;;;;14.94;100.00;98343.69;5117508;27;20217;-74
2021/06/07 03:32:28;;;;;;;24.57;22.47;;;;;;;15.06;100.00;98344.06;5125745;27;20584;-75
2021/06/07 03:34:56;;;;;;;24.87;22.83;;;;;;;15.11;100.00;98341.66;5117431;27;20315;-74
2021/06/07 03:37:25;;;;;;;24.83;22.83;;;;;;;15.22;100.00;98345.72;5118279;27;20201;-75
2021/06/07 03:39:52;;;;;;;24.67;22.63;;;;;;;15.23;100.00;98351.91;5121738;27;20208;-74
2021/06/07 03:42:20;;;;;;;25.23;23.13;;;;;;;15.08;100.00;98349.22;5120723;27;20205;-74
2021/06/07 03:44:47;;;;;;;25.60;23.47;;;;;;;15.16;100.00;98349.97;5118441;27;20227;-75
2021/06/07 03:47:15;;;;;;;28.77;26.33;;;;;;;15.21;100.00;98349.41;5114673;27;20205;-73
2021/06/07 03:49:42;;;;;;;27.97;25.50;;;;;;;15.13;100.00;98350.31;5119106;27;20228;-75
2021/06/07 03:52:10;;;;;;;28.30;26.13;;;;;;;15.20;100.00;98353.06;5122970;27;20576;-75
2021/06/07 03:54:39;;;;;;;28.60;26.30;;;;;;;15.13;100.00;98352.16;5116786;27;20232;-75
2021/06/07 03:57:07;;;;;;;27.67;25.37;;;;;;;15.21;100.00;98351.25;5121417;27;20205;-75
2021/06/07 03:59:34;;;;;;;30.53;27.70;;;;;;;15.22;100.00;98360.91;5118060;27;20208;-74
2021/06/07 04:02:04;;;;;;;29.30;27.00;;;;;;;15.38;100.00;98362.56;5122552;27;21024;-74
2021/06/07 04:04:31;;;;;;;30.40;27.80;;;;;;;15.17;100.00;98356.13;5120977;27;20587;-73
2021/06/07 04:06:59;;;;;;;30.23;27.80;;;;;;;15.13;100.00;98360.19;5119752;27;20201;-75
2021/06/07 04:09:27;;;;;;;31.87;29.27;;;;;;;15.19;100.00;98357.59;5118040;27;20569;-76
2021/06/07 04:11:56;;;;;;;31.70;29.20;;;;;;;15.30;100.00;98350.94;5117929;27;20197;-74
2021/06/07 04:14:23;;;;;;;32.83;29.93;;;;;;;15.26;100.00;98348.84;5117776;27;20607;-75
2021/06/07 04:16:51;;;;;;;34.50;31.60;;;;;;;15.24;100.00;98354.34;5117343;27;20210;-75
2021/06/07 04:19:18;;;;;;;31.97;29.30;;;;;;;15.28;100.00;98357.50;5117332;27;20975;-75
2021/06/07 04:21:46;;;;;;;34.13;31.33;;;;;;;15.18;100.00;98352.44;5117376;27;20208;-75
2021/06/07 04:24:13;;;;;;;33.60;30.77;;;;;;;15.34;100.00;98360.25;5117146;27;20585;-74
2021/06/07 04:26:40;;;;;;;33.87;31.17;;;;;;;15.34;100.00;98356.75;5118511;27;20217;-75
2021/06/07 04:29:09;;;;;;;33.43;30.60;;;;;;;15.42;100.00;98355.84;5121552;27;20236;-74
2021/06/07 04:31:37;;;;;;;33.03;29.93;;;;;;;15.49;100.00;98354.88;5119347;27;20221;-75
2021/06/07 04:34:04;;;;;;;32.80;29.80;;;;;;;15.56;100.00;98354.97;5120404;27;20573;-74
2021/06/07 04:36:32;;;;;;;34.10;31.20;;;;;;;15.61;100.00;98357.09;5112454;27;20344;-75
2021/06/07 04:38:59;;;;;;;32.00;29.43;;;;;;;15.62;100.00;98356.88;5117431;27;20615;-75
2021/06/07 04:41:27;;;;;;;32.53;29.83;;;;;;;15.60;100.00;98355.44;5121378;27;20204;-74
2021/06/07 04:43:57;;;;;;;32.00;29.27;;;;;;;15.67;100.00;98356.34;5123282;27;20268;-76
2021/06/07 04:46:26;;;;;;;32.23;29.43;;;;;;;15.57;100.00;98353.13;5115408;27;20221;-74
2021/06/07 04:48:53;;;;;;;32.63;29.77;;;;;;;15.72;100.00;98361.09;5119637;27;20205;-74
2021/06/07 04:51:21;;;;;;;34.27;31.30;;;;;;;15.74;100.00;98354.56;5119098;27;20216;-75
2021/06/07 04:53:48;;;;;;;32.40;29.70;;;;;;;15.71;100.00;98356.75;5111689;27;20608;-75
2021/06/07 04:56:15;;;;;;;31.63;28.70;;;;;;;15.76;100.00;98351.72;5105460;27;20227;-74
2021/06/07 04:58:43;;;;;;;32.00;29.33;;;;;;;15.90;100.00;98360.69;5110560;27;20231;-74
2021/06/07 05:01:12;;;;;;;33.67;30.77;;;;;;;15.96;100.00;98353.78;5110054;27;20213;-75
2021/06/07 05:03:41;;;;;;;32.10;29.33;;;;;;;16.08;100.00;98364.81;5124817;27;20201;-76
2021/06/07 05:06:09;;;;;;;30.00;27.60;;;;;;;15.92;100.00;98361.38;5123507;27;20225;-76
2021/06/07 05:08:36;;;;;;;31.77;29.27;;;;;;;16.01;100.00;98360.22;5118728;27;20220;-76
2021/06/07 05:11:04;;;;;;;34.10;31.27;;;;;;;15.96;100.00;98369.81;5119799;27;20619;-75
2021/06/07 05:13:32;;;;;;;32.00;29.50;;;;;;;16.12;100.00;98360.72;5115838;27;20267;-76
2021/06/07 05:16:00;;;;;;;33.60;30.83;;;;;;;16.07;100.00;98371.97;5113602;27;20823;-75
2021/06/07 05:18:28;;;;;;;31.70;29.17;;;;;;;16.11;100.00;98359.91;5117377;27;20213;-76
2021/06/07 05:20:56;;;;;;;31.93;29.23;;;;;;;16.34;100.00;98367.75;5117596;27;20197;-75
2021/06/07 05:23:24;;;;;;;32.30;29.77;;;;;;;16.14;100.00;98366.72;5122934;27;20212;-77
2021/06/07 05:25:51;;;;;;;32.83;30.13;;;;;;;16.31;100.00;98364.59;5121218;27;20229;-75
2021/06/07 05:28:20;;;;;;;32.93;29.97;;;;;;;16.58;100.00;98362.16;5120885;27;20572;-75
2021/06/07 05:30:48;;;;;;;31.37;28.77;;;;;;;16.68;100.00;98367.19;5118790;27;20650;-76
2021/06/07 05:33:16;;;;;;;31.00;28.50;;;;;;;16.58;100.00;98372.88;5117159;27;20212;-75
2021/06/07 05:35:46;;;;;;;32.93;30.23;;;;;;;16.58;100.00;98364.84;5121125;27;21144;-76
2021/06/07 05:38:16;;;;;;;33.70;30.90;;;;;;;16.84;100.00;98369.56;5119456;27;20465;-75
2021/06/07 05:40:44;;;;;;;34.70;31.73;;;;;;;16.84;100.00;98374.06;5117722;27;20201;-76
2021/06/07 05:43:16;;;;;;;32.53;29.73;;;;;;;17.07;100.00;98373.88;5116602;27;20213;-75
2021/06/07 05:45:43;;;;;;;31.40;28.80;;;;;;;17.09;100.00;98377.16;5112403;27;20743;-76
2021/06/07 05:48:11;;;;;;;30.00;27.50;;;;;;;16.98;100.00;98375.03;5119658;27;20212;-75
2021/06/07 05:50:40;;;;;;;33.87;31.07;;;;;;;17.01;100.00;98380.81;5119232;27;20229;-75
2021/06/07 05:53:08;;;;;;;33.37;30.43;;;;;;;17.03;100.00;98386.81;5117765;27;20204;-75
2021/06/07 05:55:39;;;;;;;31.73;29.03;;;;;;;17.33;100.00;98380.38;5113537;27;20229;-77
2021/06/07 05:58:07;;;;;;;33.30;30.67;;;;;;;17.24;100.00;98389.59;5114434;27;20200;-76
2021/06/07 06:00:38;;;;;;;31.20;28.70;;;;;;;17.35;100.00;98389.88;5117682;27;20287;-75
2021/06/07 06:03:05;;;;;;;31.50;28.87;;;;;;;17.33;100.00;98386.56;5114699;28;20201;-75
2021/06/07 06:05:33;;;;;;;32.93;30.33;;;;;;;17.42;100.00;98389.09;5116255;28;20225;-75
2021/06/07 06:08:01;;;;;;;31.90;29.27;;;;;;;17.62;100.00;98387.34;5119175;27;20742;-75
2021/06/07 06:10:28;;;;;;;30.77;28.17;;;;;;;17.35;100.00;98394.41;5117132;27;20225;-75
2021/06/07 06:12:57;;;;;;;33.17;30.43;;;;;;;17.56;100.00;98395.34;5118693;28;20208;-75
2021/06/07 06:15:25;;;;;;;32.13;29.63;;;;;;;17.56;100.00;98390.78;5119793;27;20252;-75
2021/06/07 06:17:53;;;;;;;32.27;29.50;;;;;;;17.56;100.00;98398.00;5116826;27;20518;-75
2021/06/07 06:20:21;;;;;;;32.23;29.63;;;;;;;17.63;100.00;98398.84;5113744;27;20193;-75
2021/06/07 06:22:49;;;;;;;31.90;29.40;;;;;;;17.57;100.00;98397.78;5115880;28;20235;-75
2021/06/07 06:25:18;;;;;;;32.67;29.87;;;;;;;17.78;100.00;98390.69;5114824;27;20220;-74
2021/06/07 06:27:45;;;;;;;31.77;29.17;;;;;;;17.65;100.00;98400.31;5116677;27;20197;-75
2021/06/07 06:30:18;;;;;;;32.23;29.53;;;;;;;17.69;100.00;98400.75;5118396;27;20205;-75
2021/06/07 06:32:47;;;;;;;31.73;29.20;;;;;;;17.76;100.00;98395.41;5114348;28;20197;-75
2021/06/07 06:35:15;;;;;;;32.00;29.27;;;;;;;17.68;100.00;98399.09;5115619;28;20234;-75
2021/06/07 06:37:44;;;;;;;31.40;28.70;;;;;;;17.58;100.00;98398.63;5115754;28;20204;-74
2021/06/07 06:40:16;;;;;;;32.33;29.77;;;;;;;17.46;100.00;98395.69;5115623;27;20201;-75
2021/06/07 06:42:43;;;;;;;32.37;29.77;;;;;;;17.65;100.00;98403.00;5118006;27;20204;-74
2021/06/07 06:45:12;;;;;;;31.00;28.40;;;;;;;17.52;100.00;98407.47;5115196;28;20226;-73
2021/06/07 06:47:41;;;;;;;31.77;29.17;;;;;;;17.60;100.00;98405.44;5116323;28;20197;-75
2021/06/07 06:50:11;;;;;;;30.50;28.03;;;;;;;17.70;100.00;98404.25;5119760;27;20213;-75
2021/06/07 06:52:38;;;;;;;32.67;29.97;;;;;;;17.56;100.00;98409.53;5122836;27;20266;-74
2021/06/07 06:55:07;;;;;;;31.67;29.07;;;;;;;17.61;100.00;98409.75;5119470;27;20231;-74
2021/06/07 06:57:34;;;;;;;31.77;29.07;;;;;;;17.65;100.00;98399.47;5119167;27;20204;-74
2021/06/07 07:00:04;;;;;;;31.53;28.93;;;;;;;17.60;100.00;98407.31;5119834;27;20301;-74
2021/06/07 07:02:32;;;;;;;29.53;27.03;;;;;;;17.71;100.00;98404.03;5118430;27;20229;-75
2021/06/07 07:05:01;;;;;;;29.67;27.07;;;;;;;18.27;100.00;98399.50;5121418;27;20231;-73
2021/06/07 07:07:28;;;;;;;30.50;27.97;;;;;;;18.06;100.00;98406.66;5122843;27;20228;-73
2021/06/07 07:09:56;;;;;;;29.67;26.57;;;;;;;18.03;100.00;98401.69;5121256;27;20228;-75
2021/06/07 07:12:26;;;;;;;27.77;25.67;;;;;;;18.16;100.00;98400.91;5120491;27;20217;-74
2021/06/07 07:14:54;;;;;;;28.50;26.10;;;;;;;18.28;100.00;98408.34;5119595;27;20600;-76
2021/06/07 07:17:21;;;;;;;30.73;28.23;;;;;;;18.55;100.00;98406.53;5118458;27;20201;-79
2021/06/07 07:19:49;;;;;;;28.27;25.97;;;;;;;18.43;100.00;98410.84;5121648;27;20201;-75
2021/06/07 07:22:18;;;;;;;26.77;24.67;;;;;;;18.65;100.00;98404.28;5121761;27;20744;-74
2021/06/07 07:24:47;;;;;;;27.23;24.93;;;;;;;18.69;100.00;98406.53;5120178;27;20644;-75
2021/06/07 07:27:17;;;;;;;27.23;25.13;;;;;;;18.86;100.00;98417.69;5119863;27;20201;-73
2021/06/07 07:29:45;;;;;;;27.87;25.77;;;;;;;19.34;96.32;98409.38;5120477;27;20209;-74
2021/06/07 07:32:13;;;;;;;26.90;24.80;;;;;;;19.26;100.00;98411.44;5119618;27;20534;-74
2021/06/07 07:34:41;;;;;;;26.37;24.23;;;;;;;19.26;96.26;98417.66;5120443;27;20251;-76
2021/06/07 07:37:09;;;;;;;25.20;23.20;;;;;;;19.56;94.81;98417.19;5118925;27;20565;-75
2021/06/07 07:39:38;;;;;;;24.90;23.00;;;;;;;19.40;96.48;98417.63;5112281;27;20208;-75
2021/06/07 07:42:07;;;;;;;25.23;23.33;;;;;;;19.19;95.32;98414.97;5119543;27;20227;-75
2021/06/07 07:44:34;;;;;;;24.30;22.33;;;;;;;19.37;95.43;98422.38;5113382;27;20704;-73
2021/06/07 07:47:05;;;;;;;23.80;21.80;;;;;;;19.62;91.45;98419.00;5120231;27;20684;-75
2021/06/07 07:49:33;;;;;;;24.93;22.93;;;;;;;19.81;90.08;98419.13;5113994;27;20205;-75
2021/06/07 07:52:00;;;;;;;24.03;22.13;;;;;;;19.63;93.17;98423.34;5105971;27;20218;-75
2021/06/07 07:54:28;;;;;;;24.73;22.63;;;;;;;19.91;91.57;98421.41;5121223;27;20545;-74
2021/06/07 07:56:57;;;;;;;25.17;23.17;;;;;;;20.35;88.50;98429.66;5116455;27;20209;-74
2021/06/07 07:59:24;;;;;;;22.57;20.87;;;;;;;20.27;87.63;98419.13;5121652;27;20205;-75
2021/06/07 08:01:52;;;;;;;23.67;21.97;;;;;;;20.10;87.30;98422.34;5120662;27;20198;-76
2021/06/07 08:04:19;;;;;;;23.37;21.47;;;;;;;19.94;89.94;98416.44;5121357;27;20856;-75
2021/06/07 08:06:47;;;;;;;23.00;20.97;;;;;;;20.01;87.32;98427.13;5120981;27;20604;-75
2021/06/07 08:09:15;;;;;;;23.40;21.60;;;;;;;20.25;89.33;98430.94;5117992;27;20215;-75
2021/06/07 08:11:42;;;;;;;22.53;20.70;;;;;;;20.17;90.71;98423.13;5122253;27;20216;-75
2021/06/07 08:14:17;;;;;;;21.53;19.93;;;;;;;20.62;85.44;98419.50;5117057;27;20231;-75
2021/06/07 08:16:44;;;;;;;22.57;20.80;;;;;;;20.50;84.41;98419.38;5120875;27;20328;-75
2021/06/07 08:19:12;;;;;;;20.13;18.63;;;;;;;20.48;84.29;98421.47;5120628;27;20236;-76
2021/06/07 08:21:40;;;;;;;20.23;18.43;;;;;;;20.11;87.24;98426.69;5115410;27;20678;-74
2021/06/07 08:24:07;;;;;;;17.97;16.50;;;;;;;20.46;83.21;98423.56;5119710;27;20396;-75
2021/06/07 08:26:35;;;;;;;17.07;15.67;;;;;;;20.05;86.59;98422.97;5116888;27;20228;-75
2021/06/07 08:29:03;;;;;;;16.33;15.03;;;;;;;20.36;83.18;98420.53;5120436;27;20568;-75
2021/06/07 08:31:31;;;;;;;17.07;15.77;;;;;;;20.63;83.60;98423.84;5115831;27;20513;-75
2021/06/07 08:33:59;;;;;;;17.43;15.93;;;;;;;20.95;83.57;98420.31;5117808;27;20216;-76
2021/06/07 08:36:26;;;;;;;19.10;17.50;;;;;;;21.76;74.25;98427.56;5116874;27;20224;-74
2021/06/07 08:38:54;;;;;;;18.27;16.87;;;;;;;21.96;71.48;98424.63;5118845;27;20197;-76
2021/06/07 08:41:21;;;;;;;18.07;16.67;;;;;;;21.80;74.75;98421.50;5118246;27;20197;-75
2021/06/07 08:43:49;;;;;;;17.40;16.20;;;;;;;21.87;73.38;98426.81;5119715;27;20208;-75
2021/06/07 08:46:21;;;;;;;18.03;16.73;;;;;;;21.03;76.35;98420.03;5110066;27;20229;-76
2021/06/07 08:48:50;;;;;;;18.17;16.70;;;;;;;21.11;76.62;98422.44;5113754;27;20652;-75
2021/06/07 08:51:18;;;;;;;18.03;16.73;;;;;;;20.60;79.83;98418.06;5118077;27;20311;-76
2021/06/07 08:53:47;;;;;;;16.97;15.67;;;;;;;20.63;82.06;98420.31;5116024;27;20230;-76
2021/06/07 08:56:15;;;;;;;17.33;16.13;;;;;;;20.99;77.01;98421.50;5120061;27;20224;-76
2021/06/07 08:58:43;;;;;;;18.30;16.80;;;;;;;20.92;78.95;98418.88;5114978;27;20460;-75
2021/06/07 09:01:10;;;;;;;17.60;16.33;;;;;;;21.19;75.77;98418.63;5116333;27;20209;-75
2021/06/07 09:03:38;;;;;;;19.10;17.73;;;;;;;21.18;75.37;98418.84;5119585;27;20200;-75
2021/06/07 09:06:07;;;;;;;17.63;16.33;;;;;;;21.18;76.79;98414.28;5120117;27;20571;-76
2021/06/07 09:08:37;;;;;;;16.60;15.47;;;;;;;21.47;73.75;98419.19;5120498;27;20624;-75
2021/06/07 09:11:09;;;;;;;16.53;15.37;;;;;;;21.54;75.45;98414.53;5118141;27;20204;-74
2021/06/07 09:13:37;;;;;;;16.70;15.50;;;;;;;21.54;76.00;98419.91;5117640;27;20205;-76
2021/06/07 09:16:06;;;;;;;16.63;15.33;;;;;;;21.64;77.02;98412.16;5115868;27;20543;-73
2021/06/07 09:18:35;;;;;;;16.97;15.67;;;;;;;21.93;72.60;98417.81;5120301;27;20207;-77
2021/06/07 09:21:07;;;;;;;16.80;15.30;;;;;;;21.76;73.26;98414.09;5115203;27;20197;-75
2021/06/07 09:23:43;;;;;;;14.63;13.63;;;;;;;21.72;72.38;98404.78;5122139;27;20209;-71
2021/06/07 09:26:28;;;;;;;15.47;14.37;;;;;;;21.51;74.62;98418.50;5115814;27;20232;-73
2021/06/07 09:28:57;;;;;;;14.10;13.00;;;;;;;22.12;71.53;98415.06;5122837;27;20656;-78
2021/06/07 09:31:29;;;;;;;14.27;13.07;;;;;;;21.97;71.09;98407.38;5120487;27;20700;-74
2021/06/07 09:33:56;;;;;;;14.40;13.50;;;;;;;22.25;67.89;98408.66;5119542;27;20312;-78
2021/06/07 09:36:40;;;;;;;13.70;12.80;;;;;;;22.24;68.71;98410.53;5118034;27;20408;-74
2021/06/07 09:39:10;;;;;;;14.27;13.27;;;;;;;22.49;64.61;98400.66;5117200;27;20193;-73
2021/06/07 09:41:58;;;;;;;12.20;11.30;;;;;;;22.27;68.32;98402.00;5119012;27;20193;-78
2021/06/07 09:44:38;;;;;;;12.50;11.60;;;;;;;22.63;64.50;98407.47;5119718;27;20208;-75
2021/06/07 09:47:17;;;;;;;11.80;10.90;;;;;;;22.49;63.16;98406.88;5110788;27;20200;-75
2021/06/07 09:49:47;;;;;;;11.93;10.90;;;;;;;22.60;64.07;98401.75;5117617;27;20451;-76
2021/06/07 09:52:20;;;;;;;12.03;11.23;;;;;;;22.87;64.49;98395.88;5120845;27;20323;-70
2021/06/07 09:55:09;;;;;;;12.20;11.23;;;;;;;22.98;62.37;98406.69;5119960;27;20216;-76
2021/06/07 09:57:42;;;;;;;12.40;11.40;;;;;;;22.91;64.18;98405.16;5120143;27;20197;-72
2021/06/07 10:00:11;;;;;;;12.77;11.87;;;;;;;22.44;66.85;98405.91;5116187;27;20299;-76
2021/06/07 10:02:38;;;;;;;14.37;13.27;;;;;;;22.44;67.94;98400.50;5115854;27;20215;-76
2021/06/07 10:05:06;;;;;;;12.40;11.50;;;;;;;22.48;67.33;98409.81;5120435;27;20225;-76
2021/06/07 10:07:35;;;;;;;13.80;12.80;;;;;;;22.12;70.51;98415.06;5122728;27;20205;-74
2021/06/07 10:10:15;;;;;;;13.40;12.50;;;;;;;21.94;70.84;98411.38;5112792;27;20213;-75
2021/06/07 10:12:44;;;;;;;12.60;11.80;;;;;;;21.63;74.43;98413.16;5113946;27;20649;-74
2021/06/07 10:15:14;;;;;;;12.43;11.53;;;;;;;21.40;77.59;98405.78;5119050;27;20220;-75
2021/06/07 10:17:42;;;;;;;13.87;12.67;;;;;;;20.85;80.95;98399.28;5119621;27;20209;-76
2021/06/07 10:23:00;;;;;;;13.50;12.40;;;;;;;19.95;91.89;98403.78;5116695;27;20291;-75
2021/06/07 10:25:28;;;;;;;17.57;16.07;;;;;;;19.58;97.71;98406.19;5116302;27;20346;-74
2021/06/07 10:27:55;;;;;;;17.50;15.93;;;;;;;19.30;100.00;98404.63;5118371;27;20200;-72
2021/06/07 10:30:24;;;;;;;17.90;16.60;;;;;;;19.02;100.00;98413.78;5119413;27;20275;-75
2021/06/07 10:32:53;;;;;;;18.30;16.80;;;;;;;19.00;100.00;98405.94;5114671;27;20731;-75
2021/06/07 10:35:33;;;;;;;17.97;16.67;;;;;;;19.15;100.00;98411.06;5122881;27;20224;-75
2021/06/07 10:38:10;;;;;;;17.23;15.93;;;;;;;19.13;100.00;98406.94;5122288;27;20201;-76
2021/06/07 10:40:42;;;;;;;18.27;16.77;;;;;;;19.15;100.00;98397.63;5119787;27;20197;-72
2021/06/07 10:43:11;;;;;;;17.33;16.13;;;;;;;19.26;100.00;98409.59;5123470;27;20545;-71
2021/06/07 10:45:41;;;;;;;17.20;15.93;;;;;;;19.36;100.00;98399.25;5120984;27;20226;-75
2021/06/07 10:48:10;;;;;;;16.60;15.33;;;;;;;19.66;100.00;98409.47;5120520;27;20209;-76
2021/06/07 10:50:40;;;;;;;18.30;17.10;;;;;;;19.87;100.00;98407.50;5117279;27;20205;-75
2021/06/07 10:53:09;;;;;;;17.27;15.77;;;;;;;19.91;100.00;98406.09;5125150;27;20225;-74
2021/06/07 10:55:38;;;;;;;16.23;15.13;;;;;;;20.12;100.00;98411.38;5122592;27;20247;-75
2021/06/07 10:58:06;;;;;;;17.13;15.93;;;;;;;20.28;98.20;98404.66;5120276;27;20247;-77
2021/06/07 11:00:38;;;;;;;16.67;15.57;;;;;;;20.62;96.85;98411.44;5118010;27;20208;-75
2021/06/07 11:03:16;;;;;;;15.60;14.50;;;;;;;21.20;90.20;98412.19;5122683;27;20208;-76
2021/06/07 11:05:44;;;;;;;18.27;16.90;;;;;;;21.43;88.39;98407.19;5119827;27;20228;-76
2021/06/07 11:08:18;;;;;;;15.10;13.93;;;;;;;21.50;86.82;98416.03;5122587;27;20565;-75
2021/06/07 11:10:47;;;;;;;15.23;14.13;;;;;;;21.95;81.24;98417.56;5116369;27;20569;-72
2021/06/07 11:13:16;;;;;;;16.07;14.97;;;;;;;21.83;81.72;98421.03;5120954;27;20759;-73
2021/06/07 11:15:52;;;;;;;16.80;15.60;;;;;;;21.34;87.88;98415.56;5120122;27;20225;-73
2021/06/07 11:18:38;;;;;;;16.37;15.00;;;;;;;21.13;88.00;98422.22;5121507;27;20193;-72
2021/06/07 11:21:27;;;;;;;16.70;15.43;;;;;;;20.88;93.09;98411.47;5119713;27;20236;-76
2021/06/07 11:23:56;;;;;;;17.97;16.37;;;;;;;20.87;93.96;98407.97;5118369;27;20201;-71